createdAt,value
2024-01-28T00:02:18.732Z,2.20
2024-01-28T00:07:21.549Z,2.20
2024-01-28T00:12:24.495Z,2.20
2024-01-28T00:17:27.307Z,2.21
2024-01-28T00:22:30.902Z,2.21
2024-01-28T00:27:33.703Z,2.19
2024-01-28T00:32:36.509Z,2.17
2024-01-28T00:37:39.846Z,2.20
2024-01-28T00:42:42.803Z,2.25
2024-01-28T00:47:46.128Z,2.29
2024-01-28T00:52:49.633Z,2.32
2024-01-28T00:57:52.446Z,2.34
2024-01-28T01:02:55.587Z,2.37
2024-01-28T01:07:58.796Z,2.42
2024-01-28T01:13:01.681Z,2.44
2024-01-28T01:18:04.936Z,2.43
2024-01-28T01:23:08.106Z,2.46
2024-01-28T01:28:11.579Z,2.48
2024-01-28T01:33:14.779Z,2.47
2024-01-28T01:38:17.750Z,2.44
2024-01-28T01:43:23.135Z,2.41
2024-01-28T01:48:28.421Z,2.42
2024-01-28T01:53:31.420Z,2.44
2024-01-28T01:58:34.280Z,2.45
2024-01-28T02:03:38.178Z,2.44
2024-01-28T02:08:41.809Z,2.46
2024-01-28T02:13:44.733Z,2.52
2024-01-28T02:18:47.765Z,2.56
2024-01-28T02:23:50.820Z,2.57
2024-01-28T02:28:53.726Z,2.61
2024-01-28T02:33:56.778Z,2.65
2024-01-28T02:39:00.299Z,2.68
2024-01-28T02:44:03.562Z,2.71
2024-01-28T02:49:06.445Z,2.74
2024-01-28T02:54:09.380Z,2.78
2024-01-28T02:59:12.418Z,2.81
2024-01-28T03:04:16.276Z,2.82
2024-01-28T03:09:20.096Z,2.82
2024-01-28T03:14:22.918Z,2.83
2024-01-28T03:19:26.248Z,2.87
2024-01-28T03:24:29.075Z,2.93
2024-01-28T03:29:31.849Z,2.97
2024-01-28T03:34:35.027Z,2.97
2024-01-28T03:39:37.934Z,2.94
2024-01-28T03:44:40.890Z,2.96
2024-01-28T03:49:43.888Z,3.00
2024-01-28T03:54:47.003Z,3.01
2024-01-28T03:59:49.882Z,3.03
2024-01-28T04:04:52.765Z,3.03
2024-01-28T04:09:55.671Z,3.06
2024-01-28T04:14:58.412Z,3.11
2024-01-28T04:20:01.348Z,3.17
2024-01-28T04:25:04.902Z,3.16
2024-01-28T04:30:10.162Z,3.14
2024-01-28T04:35:13.864Z,3.15
2024-01-28T04:40:16.799Z,3.20
2024-01-28T04:45:19.641Z,3.19
2024-01-28T04:50:22.519Z,3.14
2024-01-28T04:55:25.420Z,3.13
2024-01-28T05:00:28.270Z,3.12
2024-01-28T05:05:31.120Z,3.12
2024-01-28T05:10:33.952Z,3.14
2024-01-28T05:15:36.996Z,3.17
2024-01-28T05:20:39.770Z,3.22
2024-01-28T05:25:43.002Z,3.22
2024-01-28T05:30:46.005Z,3.19
2024-01-28T05:35:48.883Z,3.17
2024-01-28T05:40:51.684Z,3.17
2024-01-28T05:45:54.700Z,3.17
2024-01-28T05:50:57.556Z,3.14
2024-01-28T05:56:00.474Z,3.13
2024-01-28T06:01:08.081Z,3.16
2024-01-28T06:06:11.378Z,3.16
2024-01-28T06:11:14.452Z,3.15
2024-01-28T06:16:17.202Z,3.16
2024-01-28T06:21:20.249Z,3.14
2024-01-28T06:26:23.371Z,3.11
2024-01-28T06:31:26.209Z,3.11
2024-01-28T06:36:29.161Z,3.12
2024-01-28T06:41:32.006Z,3.09
2024-01-28T06:46:35.305Z,3.09
2024-01-28T06:51:42.959Z,3.13
2024-01-28T06:56:46.191Z,3.16
2024-01-28T07:01:49.236Z,3.18
2024-01-28T07:06:52.248Z,3.20
2024-01-28T07:11:55.053Z,3.20
2024-01-28T07:16:58.933Z,3.21
2024-01-28T07:22:01.704Z,3.23
2024-01-28T07:27:04.961Z,3.22
2024-01-28T07:32:07.745Z,3.20
2024-01-28T07:37:10.531Z,3.20
2024-01-28T07:42:13.570Z,3.23
2024-01-28T07:47:16.538Z,3.26
2024-01-28T07:52:19.338Z,3.32
2024-01-28T07:57:22.378Z,3.39
2024-01-28T08:02:25.282Z,3.50
2024-01-28T08:07:28.173Z,3.56
2024-01-28T08:12:31.076Z,3.69
2024-01-28T08:17:34.347Z,3.74
2024-01-28T08:22:38.401Z,3.75
2024-01-28T08:27:41.432Z,3.73
2024-01-28T08:32:44.500Z,3.66
2024-01-28T08:37:47.536Z,3.64
2024-01-28T08:42:50.434Z,3.67
2024-01-28T08:47:53.433Z,3.75
2024-01-28T08:52:57.109Z,3.78
2024-01-28T08:58:00.132Z,3.83
2024-01-28T09:03:03.925Z,3.89
2024-01-28T09:08:07.484Z,3.96
2024-01-28T09:13:10.684Z,4.01
2024-01-28T09:18:13.697Z,4.05
2024-01-28T09:23:16.737Z,4.11
2024-01-28T09:28:19.509Z,4.17
2024-01-28T09:33:22.405Z,4.22
2024-01-28T09:38:25.377Z,4.30
2024-01-28T09:43:31.427Z,4.40
2024-01-28T09:48:36.086Z,4.42
2024-01-28T09:53:39.065Z,4.42
2024-01-28T09:58:43.206Z,4.46
2024-01-28T10:03:47.096Z,4.53
2024-01-28T10:08:49.961Z,4.57
2024-01-28T10:13:54.665Z,4.59
2024-01-28T10:18:57.584Z,4.63
2024-01-28T10:24:00.903Z,4.73
2024-01-28T10:29:03.991Z,4.82
2024-01-28T10:34:06.934Z,4.87
2024-01-28T10:39:15.677Z,4.88
2024-01-28T10:44:20.681Z,4.88
2024-01-28T10:49:32.699Z,4.90
2024-01-28T10:54:40.162Z,4.88
2024-01-28T10:59:44.250Z,4.85
2024-01-28T11:04:49.038Z,4.86
2024-01-28T11:09:55.178Z,4.91
2024-01-28T11:15:02.114Z,4.90
2024-01-28T11:20:13.426Z,4.87
2024-01-28T11:25:25.675Z,4.85
2024-01-28T11:30:29.691Z,4.87
2024-01-28T11:35:32.502Z,4.91
2024-01-28T11:40:40.042Z,4.92
2024-01-28T11:45:43.039Z,4.94
2024-01-28T11:50:46.478Z,4.96
2024-01-28T11:55:49.368Z,4.97
2024-01-28T12:00:53.329Z,4.95
2024-01-28T12:05:58.139Z,4.92
2024-01-28T12:11:04.110Z,4.90
2024-01-28T12:16:07.540Z,4.91
2024-01-28T12:21:18.810Z,4.91
2024-01-28T12:26:22.236Z,4.90
2024-01-28T12:31:25.265Z,4.90
2024-01-28T12:36:28.407Z,4.93
2024-01-28T12:41:31.885Z,4.94
2024-01-28T12:46:35.292Z,4.93
2024-01-28T12:51:38.642Z,4.85
2024-01-28T12:56:42.271Z,4.82
2024-01-28T13:01:45.202Z,4.80
2024-01-28T13:06:48.079Z,4.78
2024-01-28T13:11:50.880Z,4.73
2024-01-28T13:16:53.865Z,4.68
2024-01-28T13:21:56.899Z,4.63
2024-01-28T13:27:00.435Z,4.59
2024-01-28T13:32:03.781Z,4.58
2024-01-28T13:37:07.039Z,4.56
2024-01-28T13:42:09.915Z,4.52
2024-01-28T13:47:12.983Z,4.52
2024-01-28T13:52:16.131Z,4.49
2024-01-28T13:57:19.721Z,4.47
2024-01-28T14:02:23.091Z,4.48
2024-01-28T14:07:26.116Z,4.49
2024-01-28T14:12:29.238Z,4.53
2024-01-28T14:17:37.776Z,4.56
2024-01-28T14:22:40.923Z,4.55
2024-01-28T14:27:43.808Z,4.54
2024-01-28T14:32:49.178Z,4.52
2024-01-28T14:37:52.204Z,4.53
2024-01-28T14:42:55.590Z,4.55
2024-01-28T14:47:58.707Z,4.52
2024-01-28T14:53:01.732Z,4.52
2024-01-28T14:58:04.947Z,4.49
2024-01-28T15:03:07.886Z,4.42
2024-01-28T15:08:11.226Z,4.37
2024-01-28T15:13:14.165Z,4.34
2024-01-28T15:18:18.241Z,4.30
2024-01-28T15:23:21.161Z,4.24
2024-01-28T15:28:25.667Z,4.19
2024-01-28T15:33:32.330Z,4.16
2024-01-28T15:38:35.261Z,4.14
2024-01-28T15:43:38.097Z,4.16
2024-01-28T15:48:41.615Z,4.17
2024-01-28T15:53:44.669Z,4.19
2024-01-28T15:58:48.007Z,4.24
2024-01-28T16:03:50.846Z,4.23
2024-01-28T16:08:53.717Z,4.22
2024-01-28T16:13:56.628Z,4.19
2024-01-28T16:19:00.329Z,4.17
2024-01-28T16:24:04.044Z,4.18
2024-01-28T16:29:07.428Z,4.14
2024-01-28T16:34:10.425Z,4.12
2024-01-28T16:39:13.521Z,4.10
2024-01-28T16:44:16.596Z,4.07
2024-01-28T16:49:21.279Z,4.06
2024-01-28T16:54:24.613Z,4.07
2024-01-28T16:59:27.569Z,4.05
2024-01-28T17:04:30.522Z,4.01
2024-01-28T17:09:33.457Z,3.99
2024-01-28T17:14:36.663Z,3.94
2024-01-28T17:19:40.304Z,3.90
2024-01-28T17:24:43.285Z,3.85
2024-01-28T17:29:46.377Z,3.80
2024-01-28T17:34:50.990Z,3.78
2024-01-28T17:39:54.540Z,3.78
2024-01-28T17:44:57.482Z,3.82
2024-01-28T17:50:00.744Z,3.84
2024-01-28T17:55:05.498Z,3.85
2024-01-28T18:00:10.036Z,3.88
2024-01-28T18:05:13.229Z,3.87
2024-01-28T18:10:17.886Z,3.85
2024-01-28T18:15:21.538Z,3.82
2024-01-28T18:20:25.190Z,3.80
2024-01-28T18:25:28.864Z,3.79
2024-01-28T18:30:32.030Z,3.80
2024-01-28T18:35:34.904Z,3.78
2024-01-28T18:40:38.078Z,3.78
2024-01-28T18:45:42.737Z,3.80
2024-01-28T18:50:47.667Z,3.79
2024-01-28T18:55:50.629Z,3.78
2024-01-28T19:00:53.861Z,3.78
2024-01-28T19:05:57.347Z,3.77
2024-01-28T19:11:01.643Z,3.78
2024-01-28T19:16:05.355Z,3.82
2024-01-28T19:21:08.602Z,3.82
2024-01-28T19:26:22.838Z,3.79
2024-01-28T19:31:26.291Z,3.77
2024-01-28T19:36:34.211Z,3.74
2024-01-28T19:41:37.109Z,3.69
2024-01-28T19:46:39.935Z,3.68
2024-01-28T19:51:42.782Z,3.69
2024-01-28T19:56:45.687Z,3.70
2024-01-28T20:01:48.664Z,3.70
2024-01-28T20:06:51.851Z,3.71
2024-01-28T20:11:54.791Z,3.73
2024-01-28T20:16:57.759Z,3.69
2024-01-28T20:22:00.846Z,3.65
2024-01-28T20:27:04.182Z,3.64
2024-01-28T20:32:08.973Z,3.60
2024-01-28T20:37:12.904Z,3.56
2024-01-28T20:42:16.655Z,3.54
2024-01-28T20:47:19.708Z,3.51
2024-01-28T20:52:22.527Z,3.49
2024-01-28T20:57:25.459Z,3.51
2024-01-28T21:02:28.294Z,3.51
2024-01-28T21:07:31.787Z,3.51
2024-01-28T21:12:34.765Z,3.53
2024-01-28T21:17:37.835Z,3.56
2024-01-28T21:22:40.860Z,3.56
2024-01-28T21:27:47.003Z,3.54
2024-01-28T21:32:50.993Z,3.53
2024-01-28T21:37:54.483Z,3.52
2024-01-28T21:42:57.741Z,3.50
2024-01-28T21:48:00.679Z,3.49
2024-01-28T21:53:03.888Z,3.49
2024-01-28T21:58:06.743Z,3.48
2024-01-28T22:03:09.601Z,3.44
2024-01-28T22:08:14.515Z,3.42
2024-01-28T22:13:17.901Z,3.39
2024-01-28T22:18:21.166Z,3.35
2024-01-28T22:23:24.100Z,3.31
2024-01-28T22:28:27.174Z,3.29
2024-01-28T22:33:30.274Z,3.27
2024-01-28T22:38:33.279Z,3.25
2024-01-28T22:43:37.018Z,3.22
2024-01-28T22:48:40.701Z,3.22
2024-01-28T22:53:44.048Z,3.23
2024-01-28T22:58:48.051Z,3.22
2024-01-28T23:03:51.093Z,3.21
2024-01-28T23:08:54.310Z,3.20
2024-01-28T23:13:57.064Z,3.20
2024-01-28T23:19:00.155Z,3.18
2024-01-28T23:24:03.218Z,3.17
2024-01-28T23:29:06.964Z,3.14
2024-01-28T23:34:13.626Z,3.07
2024-01-28T23:39:16.620Z,3.04
2024-01-28T23:44:19.785Z,2.99
2024-01-28T23:49:22.647Z,2.96
2024-01-28T23:54:25.576Z,2.95
2024-01-28T23:59:30.049Z,2.92
